createdAt,value
2022-08-05T00:00:20.939Z,96495.22
2022-08-05T00:02:52.403Z,96312.97
2022-08-05T00:06:01.839Z,96453.06
2022-08-05T00:08:32.511Z,96320.25
2022-08-05T00:10:53.961Z,96429.03
2022-08-05T00:13:20.693Z,96421.91
2022-08-05T00:16:05.891Z,96500.03
2022-08-05T00:18:35.191Z,96538.63
2022-08-05T00:21:01.838Z,96320.59
2022-08-05T00:23:44.287Z,96448.97
2022-08-05T00:26:13.689Z,96615.59
2022-08-05T00:28:43.108Z,96519.63
2022-08-05T00:31:12.479Z,96431.63
2022-08-05T00:34:55.706Z,96490.41
2022-08-05T00:37:13.245Z,96607.28
2022-08-05T00:39:41.538Z,96485.13
2022-08-05T00:46:03.479Z,96585.91
2022-08-05T00:48:31.774Z,96578.94
2022-08-05T00:50:58.495Z,96495.41
2022-08-05T00:54:00.868Z,96296.31
2022-08-05T00:56:12.100Z,96474.31
2022-08-05T00:58:39.016Z,96455.63
2022-08-05T01:01:10.527Z,96520.38
2022-08-05T01:03:38.366Z,96577.63
2022-08-05T01:06:05.721Z,96439.97
2022-08-05T01:08:42.680Z,96508.94
2022-08-05T01:11:33.476Z,96614.56
2022-08-05T01:14:08.571Z,96533.88
2022-08-05T01:16:54.807Z,96459.50
2022-08-05T01:20:00.977Z,96485.25
2022-08-05T01:22:42.018Z,96593.78
2022-08-05T01:25:59.044Z,96585.59
2022-08-05T01:28:36.226Z,96588.84
2022-08-05T01:31:23.023Z,96582.19
2022-08-05T01:34:14.957Z,96515.97
2022-08-05T01:36:47.700Z,96480.25
2022-08-05T01:39:15.763Z,96409.44
2022-08-05T01:42:02.489Z,96467.47
2022-08-05T01:44:34.377Z,96385.34
2022-08-05T01:47:02.380Z,96428.41
2022-08-05T01:50:00.398Z,96337.06
2022-08-05T01:52:19.436Z,96350.19
2022-08-05T01:54:48.717Z,96424.84
2022-08-05T01:58:10.130Z,96458.03
2022-08-05T02:00:12.093Z,96482.25
2022-08-05T02:02:46.574Z,96567.56
2022-08-05T02:05:18.117Z,96406.50
2022-08-05T02:07:59.808Z,96438.59
2022-08-05T02:10:28.653Z,96369.88
2022-08-05T02:12:57.067Z,96536.22
2022-08-05T02:15:33.368Z,96561.34
2022-08-05T02:18:28.045Z,96559.72
2022-08-05T02:20:52.298Z,96556.66
2022-08-05T02:23:21.025Z,96310.09
2022-08-05T02:25:49.161Z,96540.69
2022-08-05T02:28:16.355Z,96368.44
2022-08-05T02:31:14.282Z,96403.31
2022-08-05T02:33:45.098Z,96485.03
2022-08-05T02:36:16.683Z,96448.50
2022-08-05T02:38:53.656Z,96402.50
2022-08-05T02:41:21.120Z,96544.28
2022-08-05T02:44:06.514Z,96492.41
2022-08-05T02:46:58.554Z,96484.56
2022-08-05T02:49:40.409Z,96550.47
2022-08-05T02:52:11.422Z,96475.50
2022-08-05T02:54:41.420Z,96412.66
2022-08-05T02:58:11.319Z,96397.22
2022-08-05T02:59:59.367Z,96392.53
2022-08-05T03:02:31.065Z,96459.63
2022-08-05T03:04:57.927Z,96470.78
2022-08-05T03:08:00.292Z,96458.66
2022-08-05T03:10:14.672Z,96474.13
2022-08-05T03:12:41.383Z,96375.06
2022-08-05T03:15:12.218Z,96421.13
2022-08-05T03:17:41.529Z,96317.97
2022-08-05T03:20:10.282Z,96347.38
2022-08-05T03:22:37.093Z,96390.53
2022-08-05T03:25:31.640Z,96471.41
2022-08-05T03:28:00.109Z,96317.34
2022-08-05T03:30:28.705Z,96305.63
2022-08-05T03:33:01.829Z,96469.09
2022-08-05T03:35:28.862Z,96542.22
2022-08-05T03:37:59.316Z,96410.06
2022-08-05T03:40:32.289Z,96347.38
2022-08-05T03:43:16.001Z,96385.25
2022-08-05T03:45:57.469Z,96406.13
2022-08-05T03:48:25.294Z,96448.66
2022-08-05T03:52:37.668Z,96538.97
2022-08-05T03:56:01.873Z,96535.56
2022-08-05T03:57:02.481Z,96333.06
2022-08-05T04:00:15.518Z,96524.66
2022-08-05T04:02:57.660Z,96490.16
2022-08-05T04:05:27.919Z,96544.28
2022-08-05T04:08:05.698Z,96435.44
2022-08-05T04:10:41.093Z,96534.13
2022-08-05T04:13:08.233Z,96321.03
2022-08-05T04:15:36.070Z,96437.69
2022-08-05T04:18:06.825Z,96409.72
2022-08-05T04:20:34.582Z,96336.97
2022-08-05T04:23:01.635Z,96406.13
2022-08-05T04:25:57.496Z,96298.56
2022-08-05T04:28:15.506Z,96382.56
2022-08-05T04:30:44.042Z,96345.97
2022-08-05T04:33:10.744Z,96333.53
2022-08-05T04:36:15.723Z,96339.91
2022-08-05T04:38:39.293Z,96381.81
2022-08-05T04:41:07.332Z,96526.03
2022-08-05T04:43:36.081Z,96440.63
2022-08-05T04:46:05.102Z,96354.31
2022-08-05T04:48:32.051Z,96534.19
2022-08-05T04:51:03.075Z,96375.16
2022-08-05T04:53:36.650Z,96403.28
2022-08-05T04:56:33.487Z,96508.03
2022-08-05T04:58:54.076Z,96407.56
2022-08-05T05:01:33.822Z,96317.56
2022-08-05T05:04:07.411Z,96351.72
2022-08-05T05:06:36.550Z,96444.59
2022-08-05T05:09:14.044Z,96423.59
2022-08-05T05:11:54.431Z,96459.97
2022-08-05T05:14:31.287Z,96296.91
2022-08-05T05:17:03.485Z,96331.00
2022-08-05T05:19:36.358Z,96390.22
2022-08-05T05:22:24.320Z,96486.16
2022-08-05T05:24:57.335Z,96435.84
2022-08-05T05:27:44.544Z,96480.59
2022-08-05T05:30:33.526Z,96487.56
2022-08-05T05:33:08.878Z,96320.75
2022-08-05T05:35:43.908Z,96458.56
2022-08-05T05:38:13.441Z,96458.38
2022-08-05T05:40:48.347Z,96472.19
2022-08-05T05:43:22.406Z,96511.25
2022-08-05T05:46:05.243Z,96398.16
2022-08-05T05:48:34.476Z,96463.50
2022-08-05T05:51:14.804Z,96478.63
2022-08-05T05:53:54.606Z,96491.41
2022-08-05T05:56:33.065Z,96470.84
2022-08-05T05:59:03.292Z,96506.16
2022-08-05T06:01:37.103Z,96473.94
2022-08-05T06:04:05.559Z,96507.28
2022-08-05T06:06:34.845Z,96509.97
2022-08-05T06:09:03.191Z,96380.19
2022-08-05T06:11:30.931Z,96473.44
2022-08-05T06:13:57.932Z,96461.41
2022-08-05T06:16:36.989Z,96522.09
2022-08-05T06:19:05.893Z,96465.78
2022-08-05T06:21:49.773Z,96502.75
2022-08-05T06:24:16.607Z,96431.91
2022-08-05T06:26:53.297Z,96440.84
2022-08-05T06:29:25.444Z,96420.34
2022-08-05T06:32:26.386Z,96514.38
2022-08-05T06:34:56.283Z,96396.66
2022-08-05T06:37:58.381Z,96384.19
2022-08-05T06:40:12.202Z,96449.53
2022-08-05T06:42:39.910Z,96464.50
2022-08-05T06:45:08.513Z,96432.75
2022-08-05T06:48:44.195Z,96474.72
2022-08-05T06:50:22.882Z,96384.88
2022-08-05T06:53:03.638Z,96370.72
2022-08-05T06:55:37.107Z,96487.84
2022-08-05T06:58:29.804Z,96476.66
2022-08-05T07:00:50.962Z,96454.09
2022-08-05T07:03:17.759Z,96374.19
2022-08-05T07:05:46.466Z,96509.13
2022-08-05T07:08:13.381Z,96505.00
2022-08-05T07:10:53.294Z,96455.78
2022-08-05T07:13:57.748Z,96460.13
2022-08-05T07:18:02.351Z,96463.34
2022-08-05T07:22:29.133Z,96487.16
2022-08-05T07:25:23.058Z,96387.25
2022-08-05T07:27:58.421Z,96477.50
2022-08-05T07:30:33.741Z,96359.47
2022-08-05T07:33:09.469Z,96447.56
2022-08-05T07:36:05.299Z,96452.72
2022-08-05T07:38:34.006Z,96467.56
2022-08-05T07:42:06.759Z,96428.16
2022-08-05T07:43:52.688Z,96445.72
2022-08-05T07:46:25.298Z,96439.16
2022-08-05T07:49:02.408Z,96460.81
2022-08-05T07:51:48.719Z,96447.63
2022-08-05T07:54:26.637Z,96300.69
2022-08-05T07:57:01.582Z,96424.59
2022-08-05T07:59:41.899Z,96480.22
2022-08-05T08:02:16.660Z,96442.97
2022-08-05T08:04:48.323Z,96465.31
2022-08-05T08:07:16.193Z,96492.91
2022-08-05T08:09:44.971Z,96460.69
2022-08-05T08:12:33.323Z,96386.09
2022-08-05T08:15:03.517Z,96449.34
2022-08-05T08:17:31.993Z,96451.44
2022-08-05T08:20:21.051Z,96493.38
2022-08-05T08:22:51.687Z,96459.22
2022-08-05T08:25:27.101Z,96433.94
2022-08-05T08:28:06.177Z,96390.66
2022-08-05T08:30:47.723Z,96487.97
2022-08-05T08:33:16.694Z,96366.69
2022-08-05T08:35:53.180Z,96408.53
2022-08-05T08:38:35.362Z,96407.00
2022-08-05T08:41:08.611Z,96499.66
2022-08-05T08:45:20.486Z,96446.88
2022-08-05T08:46:24.494Z,96362.63
2022-08-05T08:49:04.175Z,96468.25
2022-08-05T08:52:02.874Z,96240.28
2022-08-05T08:54:27.201Z,96492.41
2022-08-05T08:56:54.195Z,96462.66
2022-08-05T08:59:23.179Z,96397.56
2022-08-05T09:01:57.397Z,96476.25
2022-08-05T09:04:30.315Z,96404.50
2022-08-05T09:06:57.577Z,96474.78
2022-08-05T09:09:25.085Z,96467.00
2022-08-05T09:11:55.296Z,96435.06
2022-08-05T09:14:57.811Z,96484.91
2022-08-05T09:17:39.993Z,96448.97
2022-08-05T09:20:02.953Z,96386.91
2022-08-05T09:23:07.736Z,96467.44
2022-08-05T09:26:02.156Z,96333.97
2022-08-05T09:28:32.478Z,96403.44
2022-08-05T09:31:23.318Z,96399.38
2022-08-05T09:33:56.180Z,96314.31
2022-08-05T09:36:27.668Z,96383.88
2022-08-05T09:39:18.169Z,96275.03
2022-08-05T09:41:56.152Z,96259.63
2022-08-05T09:44:50.484Z,96475.72
2022-08-05T09:47:22.620Z,96399.47
2022-08-05T09:50:00.966Z,96349.63
2022-08-05T09:52:32.598Z,96465.69
2022-08-05T09:55:55.199Z,96253.75
2022-08-05T09:57:54.805Z,96473.91
2022-08-05T10:00:26.362Z,96346.09
2022-08-05T10:02:58.295Z,96386.56
2022-08-05T10:05:29.065Z,96377.44
2022-08-05T10:08:35.741Z,96296.31
2022-08-05T10:10:54.050Z,96337.75
2022-08-05T10:13:48.186Z,96395.53
2022-08-05T10:16:52.472Z,96433.88
2022-08-05T10:19:23.685Z,96440.41
2022-08-05T10:22:07.556Z,96450.75
2022-08-05T10:24:35.798Z,96413.31
2022-08-05T10:27:07.607Z,96440.09
2022-08-05T10:30:41.581Z,96435.31
2022-08-05T10:32:53.400Z,96439.72
2022-08-05T10:35:10.388Z,96426.88
2022-08-05T10:37:40.322Z,96425.91
2022-08-05T10:40:49.432Z,96450.50
2022-08-05T10:43:36.593Z,96447.44
2022-08-05T10:46:07.078Z,96358.53
2022-08-05T10:48:57.276Z,96448.63
2022-08-05T10:51:28.818Z,96397.16
2022-08-05T10:54:01.509Z,96408.63
2022-08-05T10:56:44.845Z,96361.09
2022-08-05T11:00:03.363Z,96404.19
2022-08-05T11:02:37.620Z,96386.81
2022-08-05T11:05:07.286Z,96437.16
2022-08-05T11:08:01.123Z,96440.56
2022-08-05T11:10:27.761Z,96408.00
2022-08-05T11:12:57.047Z,96418.00
2022-08-05T11:15:44.025Z,96358.09
2022-08-05T11:18:30.141Z,96399.75
2022-08-05T11:20:59.491Z,96406.53
2022-08-05T11:23:49.843Z,96418.06
2022-08-05T11:26:28.129Z,96438.97
2022-08-05T11:29:06.971Z,96354.13
2022-08-05T11:31:58.580Z,96226.03
2022-08-05T11:34:37.334Z,96393.59
2022-08-05T11:38:14.270Z,96349.63
2022-08-05T11:40:00.376Z,96365.72
2022-08-05T11:42:31.584Z,96386.13
2022-08-05T11:45:03.012Z,96400.78
2022-08-05T11:47:49.843Z,96361.78
2022-08-05T11:50:17.611Z,96290.44
2022-08-05T11:52:48.786Z,96283.06
2022-08-05T11:55:16.301Z,96410.53
2022-08-05T11:58:10.968Z,96411.41
2022-08-05T12:00:37.790Z,96399.47
2022-08-05T12:03:32.015Z,96435.97
2022-08-05T12:06:09.747Z,96400.78
2022-08-05T12:09:04.229Z,96382.06
2022-08-05T12:11:39.891Z,96369.59
2022-08-05T12:14:08.503Z,96287.06
2022-08-05T12:16:45.361Z,96372.34
2022-08-05T12:20:16.634Z,96377.88
2022-08-05T12:22:00.004Z,96408.84
2022-08-05T12:24:27.980Z,96362.38
2022-08-05T12:26:54.817Z,96413.38
2022-08-05T12:29:27.176Z,96388.03
2022-08-05T12:31:58.045Z,96396.09
2022-08-05T12:34:33.066Z,96315.03
2022-08-05T12:37:10.780Z,96391.72
2022-08-05T12:39:44.585Z,96414.47
2022-08-05T12:42:20.038Z,96382.34
2022-08-05T12:44:47.437Z,96351.94
2022-08-05T12:47:17.827Z,96382.34
2022-08-05T12:50:04.748Z,96372.06
2022-08-05T12:52:38.931Z,96336.59
2022-08-05T12:55:25.629Z,96391.09
2022-08-05T12:58:52.425Z,96280.03
2022-08-05T13:02:01.166Z,96387.91
2022-08-05T13:03:32.178Z,96335.88
2022-08-05T13:06:00.901Z,96373.66
2022-08-05T13:08:30.129Z,96350.22
2022-08-05T13:11:04.094Z,96282.78
2022-08-05T13:14:06.089Z,96351.78
2022-08-05T13:16:19.932Z,96297.72
2022-08-05T13:22:29.180Z,96324.06
2022-08-05T13:25:00.431Z,96293.75
2022-08-05T13:27:38.213Z,96260.19
2022-08-05T13:30:33.618Z,96340.19
2022-08-05T13:32:54.051Z,96293.53
2022-08-05T13:35:43.338Z,96202.53
2022-08-05T13:38:15.717Z,96301.22
2022-08-05T13:40:55.312Z,96311.69
2022-08-05T13:43:22.458Z,96287.06
2022-08-05T13:49:54.358Z,96240.69
2022-08-05T13:52:29.177Z,96236.13
2022-08-05T13:54:56.650Z,96284.63
2022-08-05T13:57:26.320Z,96264.25
2022-08-05T14:00:13.155Z,96341.97
2022-08-05T14:02:40.026Z,96323.38
2022-08-05T14:05:29.200Z,96309.16
2022-08-05T14:08:03.233Z,96276.63
2022-08-05T14:10:37.443Z,96181.19
2022-08-05T14:13:05.857Z,96091.19
2022-08-05T14:16:04.882Z,96182.28
2022-08-05T14:18:23.517Z,96359.81
2022-08-05T14:20:54.982Z,96373.38
2022-08-05T14:23:25.671Z,96245.31
2022-08-05T14:25:58.909Z,96247.09
2022-08-05T14:28:28.144Z,96269.28
2022-08-05T14:30:56.188Z,96308.94
2022-08-05T14:33:24.049Z,96368.06
2022-08-05T14:35:51.753Z,96245.25
2022-08-05T14:38:32.405Z,96258.38
2022-08-05T14:41:02.061Z,96212.38
2022-08-05T14:43:53.924Z,96328.25
2022-08-05T14:46:20.175Z,96234.75
2022-08-05T14:48:49.323Z,96181.94
2022-08-05T14:51:17.566Z,96338.78
2022-08-05T14:53:45.040Z,96308.84
2022-08-05T14:56:13.437Z,96232.16
2022-08-05T14:58:47.927Z,96210.97
2022-08-05T15:01:47.010Z,96109.94
2022-08-05T15:04:11.495Z,96270.22
2022-08-05T15:06:38.910Z,96224.47
2022-08-05T15:09:07.145Z,96167.72
2022-08-05T15:11:50.968Z,96118.84
2022-08-05T15:14:33.396Z,96066.94
2022-08-05T15:17:03.968Z,96178.13
2022-08-05T15:19:31.170Z,96306.47
2022-08-05T15:22:00.175Z,96264.22
2022-08-05T15:24:28.346Z,96203.59
2022-08-05T15:26:56.038Z,96342.28
2022-08-05T15:29:23.856Z,96267.91
2022-08-05T15:31:57.438Z,96235.69
2022-08-05T15:34:33.232Z,96097.00
2022-08-05T15:37:05.094Z,96114.00
2022-08-05T15:40:59.098Z,96288.25
2022-08-05T15:42:54.400Z,96174.72
2022-08-05T15:45:09.915Z,96227.91
2022-08-05T15:47:37.139Z,96176.59
2022-08-05T15:50:07.266Z,96282.69
2022-08-05T15:52:54.782Z,96162.69
2022-08-05T15:55:24.580Z,96291.41
2022-08-05T15:57:52.170Z,96341.19
2022-08-05T16:00:32.750Z,96239.19
2022-08-05T16:03:06.737Z,96148.03
2022-08-05T16:05:33.833Z,96087.97
2022-08-05T16:08:00.922Z,96201.72
2022-08-05T16:10:27.853Z,96214.38
2022-08-05T16:12:56.317Z,96154.94
2022-08-05T16:15:23.656Z,96173.09
2022-08-05T16:17:57.702Z,96274.13
2022-08-05T16:20:25.617Z,96060.63
2022-08-05T16:22:54.894Z,96238.72
2022-08-05T16:25:24.162Z,96160.47
2022-08-05T16:28:06.079Z,96299.75
2022-08-05T16:30:34.209Z,96301.13
2022-08-05T16:33:03.134Z,96278.34
2022-08-05T16:35:32.588Z,96251.44
2022-08-05T16:38:00.651Z,96293.72
2022-08-05T16:40:47.859Z,96280.78
2022-08-05T16:43:23.881Z,96273.16
2022-08-05T16:46:06.776Z,96228.72
2022-08-05T16:48:37.750Z,96318.22
2022-08-05T16:51:10.141Z,96304.94
2022-08-05T16:54:02.450Z,96078.03
2022-08-05T16:56:25.648Z,96256.56
2022-08-05T16:58:52.369Z,96320.94
2022-08-05T17:01:21.665Z,96255.72
2022-08-05T17:03:51.931Z,96242.94
2022-08-05T17:06:19.087Z,96166.91
2022-08-05T17:08:53.047Z,96290.44
2022-08-05T17:11:25.159Z,96240.81
2022-08-05T17:14:06.243Z,96282.13
2022-08-05T17:16:37.223Z,96307.97
2022-08-05T17:19:09.545Z,96205.56
2022-08-05T17:21:37.469Z,96219.44
2022-08-05T17:24:14.260Z,96271.09
2022-08-05T17:26:52.658Z,96109.34
2022-08-05T17:29:22.749Z,96111.59
2022-08-05T17:31:59.661Z,96319.81
2022-08-05T17:34:30.084Z,96328.75
2022-08-05T17:37:00.130Z,96299.34
2022-08-05T17:39:33.611Z,96298.16
2022-08-05T17:42:18.520Z,96269.03
2022-08-05T17:44:51.100Z,96258.22
2022-08-05T17:47:22.226Z,96236.78
2022-08-05T17:50:00.372Z,96307.88
2022-08-05T17:52:53.265Z,96125.91
2022-08-05T17:55:22.401Z,96242.47
2022-08-05T17:57:50.303Z,96298.66
2022-08-05T18:00:17.581Z,96338.13
2022-08-05T18:02:46.935Z,96299.16
2022-08-05T18:05:16.717Z,96309.25
2022-08-05T18:07:44.722Z,96329.22
2022-08-05T18:10:20.395Z,96347.00
2022-08-05T18:12:48.780Z,96308.78
2022-08-05T18:15:15.534Z,96260.16
2022-08-05T18:18:01.654Z,96085.97
2022-08-05T18:20:31.862Z,96350.41
2022-08-05T18:23:00.600Z,96268.72
2022-08-05T18:25:38.843Z,96287.84
2022-08-05T18:28:06.190Z,96291.50
2022-08-05T18:30:33.594Z,96086.72
2022-08-05T18:33:01.285Z,96259.19
2022-08-05T18:36:00.774Z,96315.34
2022-08-05T18:38:18.933Z,96276.56
2022-08-05T18:41:56.091Z,96335.00
2022-08-05T18:43:38.021Z,96279.13
2022-08-05T18:46:10.869Z,96353.34
2022-08-05T18:48:41.845Z,96326.00
2022-08-05T18:52:04.882Z,96328.34
2022-08-05T18:54:14.150Z,96361.84
2022-08-05T18:56:41.904Z,96299.25
2022-08-05T18:59:43.751Z,96238.41
2022-08-05T19:02:04.832Z,96319.72
2022-08-05T19:05:02.073Z,96227.16
2022-08-05T19:07:25.241Z,96311.59
2022-08-05T19:09:56.757Z,96342.06
2022-08-05T19:12:23.572Z,96306.38
2022-08-05T19:15:00.599Z,96352.38
2022-08-05T19:17:59.158Z,96315.28
2022-08-05T19:20:16.376Z,96351.31
2022-08-05T19:22:44.149Z,96368.72
2022-08-05T19:25:11.046Z,96329.97
2022-08-05T19:27:56.482Z,96327.09
2022-08-05T19:30:23.259Z,96348.19
2022-08-05T19:32:50.516Z,96345.72
2022-08-05T19:35:17.421Z,96330.69
2022-08-05T19:38:06.211Z,96156.63
2022-08-05T19:40:35.158Z,96273.91
2022-08-05T19:43:05.513Z,96365.56
2022-08-05T19:45:36.535Z,96305.41
2022-08-05T19:48:04.458Z,96322.38
2022-08-05T19:50:32.088Z,96365.69
2022-08-05T19:52:58.835Z,96352.63
2022-08-05T19:56:14.202Z,96393.25
2022-08-05T19:58:28.609Z,96392.72
2022-08-05T20:00:56.583Z,96325.19
2022-08-05T20:03:25.372Z,96351.44
2022-08-05T20:05:56.652Z,96254.63
2022-08-05T20:08:24.305Z,96373.88
2022-08-05T20:10:51.690Z,96333.91
2022-08-05T20:13:30.146Z,96322.44
2022-08-05T20:16:05.867Z,96376.53
2022-08-05T20:18:35.878Z,96351.72
2022-08-05T20:21:04.729Z,96292.84
2022-08-05T20:23:39.873Z,96343.56
2022-08-05T20:26:17.525Z,96355.28
2022-08-05T20:28:51.487Z,96375.16
2022-08-05T20:31:21.721Z,96323.28
2022-08-05T20:33:50.153Z,96321.31
2022-08-05T20:36:18.048Z,96282.09
2022-08-05T20:38:54.634Z,96353.09
2022-08-05T20:41:27.485Z,96265.34
2022-08-05T20:44:18.744Z,96362.13
2022-08-05T20:46:56.833Z,96362.78
2022-08-05T20:49:24.401Z,96377.13
2022-08-05T20:51:53.824Z,96314.63
2022-08-05T20:54:20.780Z,96306.91
2022-08-05T20:56:47.523Z,96304.84
2022-08-05T20:59:27.119Z,96157.84
2022-08-05T21:02:06.010Z,96299.91
2022-08-05T21:04:33.686Z,96297.69
2022-08-05T21:07:00.378Z,96357.88
2022-08-05T21:09:27.253Z,96416.81
2022-08-05T21:12:08.867Z,96356.72
2022-08-05T21:14:38.011Z,96253.28
2022-08-05T21:17:05.429Z,96390.00
2022-08-05T21:19:47.268Z,96349.53
2022-08-05T21:22:21.780Z,96344.50
2022-08-05T21:24:51.921Z,96413.59
2022-08-05T21:27:20.521Z,96439.88
2022-08-05T21:29:51.572Z,96361.75
2022-08-05T21:32:19.941Z,96415.84
2022-08-05T21:35:08.262Z,96397.72
2022-08-05T21:37:33.555Z,96396.91
2022-08-05T21:40:04.476Z,96349.84
2022-08-05T21:42:44.220Z,96281.34
2022-08-05T21:45:24.599Z,96375.72
2022-08-05T21:47:56.672Z,96414.03
2022-08-05T21:50:26.256Z,96392.28
2022-08-05T21:52:53.313Z,96387.91
2022-08-05T21:55:43.115Z,96352.25
2022-08-05T21:58:10.219Z,96380.88
2022-08-05T22:00:38.399Z,96318.13
2022-08-05T22:03:06.942Z,96167.06
2022-08-05T22:05:48.623Z,96375.56
2022-08-05T22:08:22.073Z,96321.84
2022-08-05T22:10:49.788Z,96360.56
2022-08-05T22:14:32.725Z,96395.66
2022-08-05T22:16:15.769Z,96420.34
2022-08-05T22:18:50.477Z,96411.81
2022-08-05T22:21:18.995Z,96390.66
2022-08-05T22:24:12.967Z,96410.88
2022-08-05T22:27:11.047Z,96397.78
2022-08-05T22:29:43.449Z,96386.03
2022-08-05T22:32:10.280Z,96370.00
2022-08-05T22:34:36.922Z,96309.00
2022-08-05T22:37:04.722Z,96376.88
2022-08-05T22:39:33.884Z,96402.84
2022-08-05T22:42:11.175Z,96323.72
2022-08-05T22:44:39.918Z,96350.28
2022-08-05T22:47:06.959Z,96396.41
2022-08-05T22:50:20.986Z,96310.44
2022-08-05T22:52:30.653Z,96428.53
2022-08-05T22:55:00.876Z,96393.72
2022-08-05T22:57:36.242Z,96314.16
2022-08-05T23:00:06.206Z,96376.38
2022-08-05T23:02:35.608Z,96346.13
2022-08-05T23:05:13.101Z,96297.63
2022-08-05T23:07:44.855Z,96324.00
2022-08-05T23:10:16.291Z,96407.31
2022-08-05T23:12:47.275Z,96356.19
2022-08-05T23:15:18.040Z,96391.81
2022-08-05T23:18:01.435Z,96372.06
2022-08-05T23:20:30.393Z,96417.72
2022-08-05T23:22:58.789Z,96382.16
2022-08-05T23:25:54.685Z,96319.31
2022-08-05T23:28:12.763Z,96390.22
2022-08-05T23:30:43.445Z,96359.78
2022-08-05T23:33:16.300Z,96277.72
2022-08-05T23:35:50.336Z,96349.38
2022-08-05T23:38:17.217Z,96421.72
2022-08-05T23:40:49.553Z,96409.22
2022-08-05T23:43:25.472Z,96365.28
2022-08-05T23:46:20.649Z,96419.75
2022-08-05T23:49:00.412Z,96428.66
2022-08-05T23:51:53.933Z,96443.22
2022-08-05T23:54:38.053Z,96438.53
2022-08-05T23:57:05.809Z,96337.94
